createdAt,value
2018-08-09T00:01:05.017Z,6.53
2018-08-09T00:06:09.086Z,4.40
2018-08-09T00:11:12.925Z,4.53
2018-08-09T00:16:17.095Z,4.83
2018-08-09T00:21:21.146Z,5.60
2018-08-09T00:26:25.203Z,4.60
2018-08-09T00:31:29.537Z,4.43
2018-08-09T00:36:33.617Z,6.43
2018-08-09T00:41:37.661Z,6.03
2018-08-09T00:46:41.713Z,6.57
2018-08-09T00:51:45.776Z,6.13
2018-08-09T00:56:49.602Z,6.43
2018-08-09T01:01:53.693Z,7.27
2018-08-09T01:06:57.542Z,6.03
2018-08-09T01:12:01.677Z,6.37
2018-08-09T01:17:05.787Z,6.23
2018-08-09T01:22:09.896Z,6.20
2018-08-09T01:27:13.670Z,5.90
2018-08-09T01:32:17.740Z,8.00
2018-08-09T01:37:21.584Z,7.47
2018-08-09T01:42:42.685Z,6.03
2018-08-09T01:47:47.869Z,6.30
2018-08-09T01:52:51.953Z,7.63
2018-08-09T01:57:56.010Z,5.83
2018-08-09T02:03:00.137Z,6.23
2018-08-09T02:08:04.475Z,5.73
2018-08-09T02:13:08.368Z,5.83
2018-08-09T02:18:12.424Z,5.80
2018-08-09T02:23:16.484Z,5.20
2018-08-09T02:28:20.520Z,5.07
2018-08-09T02:33:24.613Z,6.50
2018-08-09T02:38:28.672Z,5.60
2018-08-09T02:43:32.879Z,6.90
2018-08-09T02:48:36.953Z,5.97
2018-08-09T02:53:40.761Z,7.93
2018-08-09T02:58:44.848Z,8.30
2018-08-09T03:03:48.673Z,7.43
2018-08-09T03:08:52.783Z,6.27
2018-08-09T03:13:56.876Z,9.47
2018-08-09T03:19:00.776Z,6.90
2018-08-09T03:24:04.957Z,7.23
2018-08-09T03:29:09.061Z,7.27
2018-08-09T03:34:13.130Z,6.23
2018-08-09T03:39:17.212Z,7.20
2018-08-09T03:44:21.311Z,5.57
2018-08-09T03:49:25.515Z,6.17
2018-08-09T03:54:29.593Z,5.93
2018-08-09T03:59:33.502Z,6.30
2018-08-09T04:04:37.559Z,6.90
2018-08-09T04:09:41.436Z,7.20
2018-08-09T04:14:45.272Z,6.60
2018-08-09T04:19:50.745Z,7.83
2018-08-09T04:24:54.814Z,7.10
2018-08-09T04:29:58.654Z,7.27
2018-08-09T04:35:02.758Z,7.67
2018-08-09T04:40:06.854Z,5.93
2018-08-09T04:45:10.766Z,6.20
2018-08-09T04:50:14.990Z,6.33
2018-08-09T04:55:19.079Z,6.60
2018-08-09T05:00:23.255Z,7.10
2018-08-09T05:05:27.387Z,7.73
2018-08-09T05:10:31.475Z,6.90
2018-08-09T05:15:35.546Z,6.93
2018-08-09T05:20:39.655Z,7.10
2018-08-09T05:25:43.754Z,6.33
2018-08-09T05:30:47.868Z,6.60
2018-08-09T05:35:51.933Z,6.00
2018-08-09T05:40:56.106Z,7.03
2018-08-09T05:46:00.194Z,6.37
2018-08-09T05:51:04.261Z,7.03
2018-08-09T05:56:08.330Z,6.43
2018-08-09T06:01:12.422Z,8.50
2018-08-09T06:06:16.293Z,7.00
2018-08-09T06:11:20.123Z,6.60
2018-08-09T06:16:23.934Z,6.67
2018-08-09T06:21:27.745Z,6.40
2018-08-09T06:26:31.900Z,6.57
2018-08-09T06:31:35.963Z,7.30
2018-08-09T06:36:40.041Z,8.73
2018-08-09T06:41:44.101Z,7.50
2018-08-09T06:46:48.203Z,9.47
2018-08-09T06:51:53.298Z,7.67
2018-08-09T06:56:57.438Z,7.60
2018-08-09T07:02:01.309Z,8.50
2018-08-09T07:07:05.422Z,9.53
2018-08-09T07:12:09.522Z,8.90
2018-08-09T07:17:13.594Z,9.23
2018-08-09T07:22:17.419Z,9.30
2018-08-09T07:27:21.491Z,9.50
2018-08-09T07:32:25.570Z,8.93
2018-08-09T07:37:29.713Z,9.83
2018-08-09T07:42:33.791Z,8.93
2018-08-09T07:47:37.934Z,8.60
2018-08-09T07:52:41.851Z,8.00
2018-08-09T07:57:45.929Z,8.57
2018-08-09T08:02:50.073Z,7.97
2018-08-09T08:07:54.154Z,8.47
2018-08-09T08:12:58.238Z,9.37
2018-08-09T08:18:02.304Z,9.00
2018-08-09T08:23:06.454Z,9.28
2018-08-09T08:28:10.533Z,9.03
2018-08-09T08:33:14.638Z,8.17
2018-08-09T08:38:19.002Z,10.17
2018-08-09T08:43:23.104Z,8.47
2018-08-09T08:48:27.163Z,9.70
2018-08-09T08:53:31.265Z,7.70
2018-08-09T08:58:35.106Z,7.70
2018-08-09T09:03:39.254Z,7.95
2018-08-09T09:08:43.338Z,8.03
2018-08-09T09:13:47.515Z,8.13
2018-08-09T09:18:51.574Z,7.63
2018-08-09T09:23:55.660Z,7.40
2018-08-09T09:28:59.745Z,8.00
2018-08-09T09:34:03.926Z,9.00
2018-08-09T09:39:09.726Z,6.75
2018-08-09T09:44:13.818Z,9.53
2018-08-09T09:49:17.620Z,6.97
2018-08-09T09:54:21.466Z,8.28
2018-08-09T09:59:25.288Z,8.07
2018-08-09T10:04:29.380Z,7.80
2018-08-09T10:09:33.436Z,12.23
2018-08-09T10:14:37.509Z,8.40
2018-08-09T10:19:41.657Z,7.72
2018-08-09T10:24:45.721Z,10.73
2018-08-09T10:29:50.894Z,9.00
2018-08-09T10:34:55.006Z,10.03
2018-08-09T10:39:59.125Z,5.75
2018-08-09T10:45:03.440Z,9.65
2018-08-09T10:50:07.508Z,9.00
2018-08-09T10:55:11.605Z,9.43
2018-08-09T11:00:15.454Z,8.25
2018-08-09T11:05:19.558Z,6.92
2018-08-09T11:10:23.617Z,9.83
2018-08-09T11:15:27.734Z,9.20
2018-08-09T11:20:31.809Z,7.28
2018-08-09T11:25:35.642Z,10.60
2018-08-09T11:30:39.721Z,7.45
2018-08-09T11:35:43.822Z,9.48
2018-08-09T11:40:47.933Z,7.03
2018-08-09T11:45:51.806Z,5.35
2018-08-09T11:50:55.897Z,9.48
2018-08-09T11:55:59.991Z,9.60
2018-08-09T12:01:04.090Z,10.58
2018-08-09T12:06:08.159Z,8.83
2018-08-09T12:11:12.253Z,10.38
2018-08-09T12:16:16.361Z,7.90
2018-08-09T12:21:20.438Z,10.72
2018-08-09T12:26:24.529Z,10.45
2018-08-09T12:31:28.643Z,11.35
2018-08-09T12:36:32.741Z,10.18
2018-08-09T12:41:36.853Z,17.15
2018-08-09T12:46:40.927Z,9.53
2018-08-09T12:51:45.013Z,8.80
2018-08-09T12:56:49.073Z,8.53
2018-08-09T13:01:53.301Z,9.15
2018-08-09T13:06:57.389Z,10.73
2018-08-09T13:12:01.242Z,8.90
2018-08-09T13:17:05.346Z,8.20
2018-08-09T13:22:09.425Z,7.35
2018-08-09T13:27:13.710Z,8.40
2018-08-09T13:32:17.883Z,8.10
2018-08-09T13:37:22.017Z,9.87
2018-08-09T13:42:25.835Z,8.97
2018-08-09T13:47:29.919Z,10.30
2018-08-09T13:52:34.034Z,7.90
2018-08-09T13:57:38.130Z,8.27
2018-08-09T14:02:43.596Z,7.47
2018-08-09T14:07:47.798Z,8.03
2018-08-09T14:12:51.885Z,7.63
2018-08-09T14:17:56.034Z,10.43
2018-08-09T14:23:00.115Z,6.63
2018-08-09T14:28:04.235Z,6.20
2018-08-09T14:33:08.306Z,7.60
2018-08-09T14:38:12.271Z,6.67
2018-08-09T14:43:16.101Z,9.13
2018-08-09T14:48:19.969Z,8.33
2018-08-09T14:53:23.795Z,5.63
2018-08-09T14:58:27.937Z,5.30
2018-08-09T15:03:32.081Z,5.17
2018-08-09T15:08:36.163Z,7.57
2018-08-09T15:13:39.997Z,5.57
2018-08-09T15:18:44.531Z,4.73
2018-08-09T15:23:48.694Z,5.43
2018-08-09T15:28:52.784Z,4.70
2018-08-09T15:33:57.014Z,5.77
2018-08-09T15:39:00.877Z,5.77
2018-08-09T15:44:04.717Z,5.00
2018-08-09T15:49:08.817Z,5.87
2018-08-09T15:54:12.825Z,5.27
2018-08-09T15:59:16.894Z,4.67
2018-08-09T16:04:20.958Z,4.37
2018-08-09T16:09:25.030Z,4.37
2018-08-09T16:14:29.129Z,6.30
2018-08-09T16:19:32.957Z,4.80
2018-08-09T16:24:37.033Z,5.33
2018-08-09T16:29:41.134Z,4.13
2018-08-09T16:34:45.218Z,5.33
2018-08-09T16:39:49.356Z,4.13
2018-08-09T16:44:53.196Z,4.07
2018-08-09T16:49:57.380Z,4.03
2018-08-09T16:55:01.547Z,5.33
2018-08-09T17:00:09.471Z,5.17
2018-08-09T17:05:17.818Z,3.93
2018-08-09T17:10:23.922Z,3.53
2018-08-09T17:15:29.198Z,4.57
2018-08-09T17:20:33.866Z,4.43
2018-08-09T17:25:37.716Z,4.50
2018-08-09T17:30:41.809Z,4.37
2018-08-09T17:35:45.881Z,3.63
2018-08-09T17:40:51.037Z,3.20
2018-08-09T17:45:54.873Z,2.63
2018-08-09T17:50:58.745Z,3.70
2018-08-09T17:56:02.840Z,4.73
2018-08-09T18:01:06.766Z,2.30
2018-08-09T18:06:10.858Z,3.43
2018-08-09T18:11:14.998Z,2.80
2018-08-09T18:16:18.845Z,1.67
2018-08-09T18:21:22.917Z,2.03
2018-08-09T18:26:27.010Z,1.70
2018-08-09T18:31:30.868Z,2.67
2018-08-09T18:36:34.681Z,1.57
2018-08-09T18:41:38.758Z,1.70
2018-08-09T18:46:42.886Z,1.70
2018-08-09T18:51:47.003Z,1.87
2018-08-09T18:56:50.945Z,1.63
2018-08-09T19:01:54.760Z,1.90
2018-08-09T19:06:58.862Z,1.73
2018-08-09T19:12:40.259Z,1.53
2018-08-09T19:17:44.458Z,1.57
2018-08-09T19:22:48.554Z,2.23
2018-08-09T19:27:52.785Z,1.87
2018-08-09T19:32:56.774Z,1.57
2018-08-09T19:38:00.875Z,1.67
2018-08-09T19:43:04.965Z,1.83
2018-08-09T19:48:09.054Z,3.10
2018-08-09T19:53:13.126Z,2.17
2018-08-09T19:58:17.004Z,1.80
2018-08-09T20:03:21.128Z,3.13
2018-08-09T20:08:25.221Z,2.77
2018-08-09T20:13:29.310Z,1.70
2018-08-09T20:18:33.390Z,1.80
2018-08-09T20:23:37.556Z,1.90
2018-08-09T20:28:41.966Z,2.23
2018-08-09T20:33:46.051Z,1.60
2018-08-09T20:38:49.917Z,1.70
2018-08-09T20:43:53.842Z,1.87
2018-08-09T20:48:58.673Z,1.67
2018-08-09T20:54:02.769Z,1.80
2018-08-09T20:59:07.697Z,1.90
2018-08-09T21:04:12.739Z,2.15
2018-08-09T21:09:16.822Z,1.80
2018-08-09T21:14:20.870Z,2.00
2018-08-09T21:19:25.052Z,1.70
2018-08-09T21:24:29.114Z,1.63
2018-08-09T21:29:33.157Z,1.47
2018-08-09T21:34:37.249Z,0.90
2018-08-09T21:39:41.383Z,1.07
2018-08-09T21:44:45.645Z,0.90
2018-08-09T21:49:49.768Z,1.40
2018-08-09T21:54:53.805Z,0.90
2018-08-09T21:59:57.862Z,1.07
2018-08-09T22:05:07.342Z,3.03
2018-08-09T22:10:16.683Z,0.83
2018-08-09T22:15:25.969Z,0.40
2018-08-09T22:20:35.250Z,0.53
2018-08-09T22:25:39.324Z,0.60
2018-08-09T22:30:43.144Z,0.40
2018-08-09T22:35:47.202Z,0.43
2018-08-09T22:40:51.677Z,2.60
2018-08-09T22:45:55.781Z,1.13
2018-08-09T22:50:59.876Z,1.00
2018-08-09T22:56:04.014Z,1.00
2018-08-09T23:01:07.853Z,1.23
2018-08-09T23:06:11.989Z,0.70
2018-08-09T23:11:15.816Z,0.70
2018-08-09T23:16:19.966Z,0.60
2018-08-09T23:21:24.079Z,0.70
2018-08-09T23:26:28.265Z,0.87
2018-08-09T23:31:32.353Z,0.60
2018-08-09T23:36:36.434Z,1.00
2018-08-09T23:41:40.583Z,1.03
2018-08-09T23:46:44.675Z,1.77
2018-08-09T23:51:48.744Z,1.63
2018-08-09T23:56:53.709Z,2.33
